Time;durP1;ratioP1;P1;durP2;ratioP2;P2;SDS_P1;SDS_P2;PMS_P1;PMS_P2;Temp;Humidity;BMP_temperature;BMP_pressure;BME280_temperature;BME280_humidity;BME280_pressure;Samples;Min_cycle;Max_cycle;Signal;HPM_P1;HPM_P2
2021/04/19 00:00:31;;;;;;;16.17;11.43;;;;;;;;;;4993530;28;20458;-85
2021/04/19 00:02:57;;;;;;;14.60;11.70;;;;;;;;;;4996193;28;20789;-90
2021/04/19 00:05:24;;;;;;;14.40;11.10;;;6.70;99.90;;;;;;4996700;28;20465;-91
2021/04/19 00:07:50;;;;;;;15.20;11.23;;;6.80;99.90;;;;;;4995741;28;20526;-89
2021/04/19 00:10:18;;;;;;;15.97;11.10;;;6.80;99.90;;;;;;4996762;28;20485;-89
2021/04/19 00:12:45;;;;;;;15.77;11.97;;;6.80;99.90;;;;;;4996813;28;20543;-91
2021/04/19 00:15:16;;;;;;;13.63;11.37;;;6.80;99.90;;;;;;4992456;28;20442;-90
2021/04/19 00:17:43;;;;;;;15.90;11.33;;;;;;;;;;4993516;28;20488;-89
2021/04/19 00:20:10;;;;;;;14.60;10.70;;;6.70;99.90;;;;;;4996106;28;20495;-90
2021/04/19 00:22:37;;;;;;;14.80;10.83;;;6.40;99.90;;;;;;4992520;28;20449;-90
2021/04/19 00:25:04;;;;;;;14.80;11.13;;;6.80;99.90;;;;;;4996664;28;20441;-89
2021/04/19 00:27:31;;;;;;;15.37;11.37;;;6.60;99.90;;;;;;4996596;28;20460;-87
2021/04/19 00:29:57;;;;;;;16.27;12.00;;;;;;;;;;4996303;28;20812;-87
2021/04/19 00:32:25;;;;;;;14.30;11.70;;;6.50;99.90;;;;;;4996455;28;20480;-90
2021/04/19 00:34:51;;;;;;;17.17;11.53;;;6.50;99.90;;;;;;4993165;28;20809;-91
2021/04/19 00:37:18;;;;;;;14.20;10.80;;;6.30;99.90;;;;;;4995310;28;20445;-89
2021/04/19 00:39:44;;;;;;;14.47;11.70;;;6.80;99.90;;;;;;4996218;28;20457;-90
2021/04/19 00:42:11;;;;;;;14.90;11.00;;;6.40;99.90;;;;;;4996595;28;20483;-89
2021/04/19 00:44:38;;;;;;;14.43;11.37;;;6.40;99.90;;;;;;4996650;28;20448;-91
2021/04/19 00:47:05;;;;;;;13.40;10.80;;;6.30;99.90;;;;;;4991887;28;20457;-90
2021/04/19 00:49:32;;;;;;;14.80;11.00;;;5.70;99.90;;;;;;4992985;28;20437;-90
2021/04/19 00:51:59;;;;;;;11.80;10.20;;;6.40;99.90;;;;;;4995123;28;20854;-88
2021/04/19 00:54:26;;;;;;;16.87;12.00;;;6.50;99.90;;;;;;4992316;28;20858;-90
2021/04/19 00:56:53;;;;;;;14.77;11.30;;;7.00;99.90;;;;;;4993091;28;20971;-91
2021/04/19 00:59:39;;;;;;;16.13;12.17;;;5.70;99.90;;;;;;4996003;28;20454;-89
2021/04/19 01:02:06;;;;;;;15.30;10.60;;;6.40;99.90;;;;;;4996140;28;20464;-90
2021/04/19 01:04:34;;;;;;;13.07;11.23;;;6.20;99.90;;;;;;4991963;28;20453;-92
2021/04/19 01:07:01;;;;;;;15.47;12.17;;;6.20;99.90;;;;;;4995210;28;20446;-90
2021/04/19 01:09:27;;;;;;;13.50;10.87;;;6.30;99.90;;;;;;4992796;28;20484;-90
2021/04/19 01:11:54;;;;;;;14.77;11.03;;;6.50;99.90;;;;;;4992841;28;20481;-92
2021/04/19 01:14:20;;;;;;;17.53;11.60;;;6.20;99.90;;;;;;4992882;28;20445;-91
2021/04/19 01:16:47;;;;;;;14.37;11.70;;;6.10;99.90;;;;;;4996055;28;20453;-90
2021/04/19 01:19:13;;;;;;;15.30;11.80;;;5.50;99.90;;;;;;4992920;28;20793;-90
2021/04/19 01:21:40;;;;;;;17.90;11.23;;;6.50;99.90;;;;;;4995245;28;20575;-90
2021/04/19 01:24:07;;;;;;;14.27;11.10;;;6.40;99.90;;;;;;4995284;28;20449;-91
2021/04/19 01:26:34;;;;;;;14.47;11.07;;;6.40;99.90;;;;;;4995411;28;20459;-91
2021/04/19 01:29:00;;;;;;;16.10;12.20;;;6.30;99.90;;;;;;4995215;28;20465;-89
2021/04/19 01:31:27;;;;;;;15.17;11.60;;;6.70;99.90;;;;;;4992434;28;20449;-88
2021/04/19 01:33:53;;;;;;;15.10;11.67;;;;;;;;;;4993737;28;21014;-88
2021/04/19 01:36:20;;;;;;;17.60;12.37;;;;;;;;;;4991231;28;20496;-93
2021/04/19 01:38:47;;;;;;;18.43;11.37;;;6.30;99.90;;;;;;4994440;28;20445;-89
2021/04/19 01:41:13;;;;;;;15.10;12.20;;;6.30;99.90;;;;;;4995415;28;20449;-91
2021/04/19 01:43:40;;;;;;;16.67;12.10;;;;;;;;;;4995332;28;20449;-87
2021/04/19 01:46:07;;;;;;;21.23;13.43;;;6.40;99.90;;;;;;4995733;28;20810;-90
2021/04/19 01:48:33;;;;;;;18.97;12.70;;;6.50;99.90;;;;;;4995058;28;20457;-88
2021/04/19 01:51:00;;;;;;;16.37;12.57;;;5.90;99.90;;;;;;4995497;28;20452;-90
2021/04/19 01:53:26;;;;;;;20.50;14.10;;;6.40;99.90;;;;;;4994520;28;20504;-90
2021/04/19 01:55:54;;;;;;;22.97;14.03;;;4.80;99.90;;;;;;4992312;28;20445;-92
2021/04/19 01:58:22;;;;;;;18.53;12.70;;;6.30;99.90;;;;;;4991155;28;20456;-91
2021/04/19 02:00:51;;;;;;;15.77;12.90;;;6.30;99.90;;;;;;4992170;28;21003;-92
2021/04/19 02:03:40;;;;;;;19.67;14.37;;;6.00;99.90;;;;;;4994679;28;20449;-90
2021/04/19 02:06:11;;;;;;;17.07;13.13;;;6.50;99.90;;;;;;4994860;28;20438;-90
2021/04/19 02:08:50;;;;;;;17.80;13.20;;;6.40;99.90;;;;;;4989312;28;20481;-91
2021/04/19 02:11:29;;;;;;;18.00;13.47;;;6.40;99.90;;;;;;4994537;28;20535;-90
2021/04/19 02:14:03;;;;;;;18.40;13.37;;;6.50;99.90;;;;;;4994426;28;20914;-88
2021/04/19 02:16:38;;;;;;;16.30;13.03;;;6.50;99.90;;;;;;4991898;28;20472;-88
2021/04/19 02:19:11;;;;;;;20.57;13.83;;;6.50;99.90;;;;;;4994519;28;20445;-90
2021/04/19 02:21:45;;;;;;;19.77;14.40;;;6.70;99.90;;;;;;4991458;28;20433;-89
2021/04/19 02:24:16;;;;;;;18.20;12.77;;;6.70;99.90;;;;;;4991809;28;20437;-91
2021/04/19 02:26:49;;;;;;;19.63;14.53;;;6.70;99.90;;;;;;4994312;28;20460;-89
2021/04/19 02:29:19;;;;;;;21.87;15.70;;;6.60;99.90;;;;;;4994519;28;20865;-88
2021/04/19 02:31:55;;;;;;;21.67;14.53;;;6.70;99.90;;;;;;4994911;28;20813;-90
2021/04/19 02:34:25;;;;;;;18.63;13.77;;;;;;;;;;4990088;28;20857;-90
2021/04/19 02:36:53;;;;;;;19.93;14.73;;;6.60;99.90;;;;;;4993278;28;20826;-89
2021/04/19 02:39:20;;;;;;;20.60;14.43;;;6.60;99.90;;;;;;4994446;28;20445;-90
2021/04/19 02:41:51;;;;;;;15.50;13.20;;;8.40;99.90;;;;;;4994226;28;20964;-91
2021/04/19 02:44:20;;;;;;;19.73;14.40;;;6.60;99.90;;;;;;4996033;28;20467;-92
2021/04/19 02:46:47;;;;;;;20.10;15.87;;;;;;;;;;5000997;28;20452;-90
2021/04/19 02:49:13;;;;;;;18.40;14.07;;;6.50;99.90;;;;;;5000874;28;20507;-87
2021/04/19 02:51:42;;;;;;;19.87;15.00;;;6.70;99.90;;;;;;5000624;28;20445;-90
2021/04/19 02:54:10;;;;;;;22.00;14.90;;;6.20;99.90;;;;;;4999921;28;20562;-88
2021/04/19 02:56:38;;;;;;;21.17;14.90;;;6.60;99.90;;;;;;5000720;28;20488;-91
2021/04/19 02:59:07;;;;;;;18.30;14.20;;;6.50;99.90;;;;;;4997586;28;20508;-90
2021/04/19 03:01:39;;;;;;;19.80;15.27;;;6.50;99.90;;;;;;5000604;28;20459;-89
2021/04/19 03:04:10;;;;;;;17.17;14.23;;;6.50;99.90;;;;;;5000329;28;20463;-89
2021/04/19 03:06:40;;;;;;;17.10;14.50;;;6.50;99.90;;;;;;5000880;28;20573;-90
2021/04/19 03:09:07;;;;;;;19.40;15.27;;;6.90;99.90;;;;;;5000091;28;21007;-87
2021/04/19 03:11:40;;;;;;;23.33;15.30;;;6.50;99.90;;;;;;5000458;28;20475;-92
2021/04/19 03:14:09;;;;;;;23.27;16.23;;;6.20;99.90;;;;;;4997843;28;20847;-91
2021/04/19 03:16:39;;;;;;;22.47;16.20;;;6.40;99.90;;;;;;5000512;28;20527;-90
2021/04/19 03:19:09;;;;;;;21.77;16.37;;;6.70;99.90;;;;;;5000334;28;20441;-89
2021/04/19 03:21:39;;;;;;;20.67;16.70;;;6.20;99.90;;;;;;5000596;28;20990;-90
2021/04/19 03:24:09;;;;;;;23.97;16.67;;;6.60;99.90;;;;;;5000371;28;20445;-88
2021/04/19 03:26:36;;;;;;;22.87;17.10;;;;;;;;;;5000404;28;20457;-89
2021/04/19 03:29:03;;;;;;;20.97;16.37;;;6.00;99.90;;;;;;5000524;28;20453;-89
2021/04/19 03:31:39;;;;;;;22.67;18.17;;;6.60;99.90;;;;;;5000838;28;20499;-90
2021/04/19 03:34:11;;;;;;;22.90;18.50;;;6.80;99.90;;;;;;5000427;28;20507;-88
2021/04/19 03:36:39;;;;;;;23.87;18.10;;;6.60;99.90;;;;;;5000519;28;20453;-88
2021/04/19 03:39:13;;;;;;;22.27;18.10;;;6.70;99.90;;;;;;4989522;28;20516;-91
2021/04/19 03:41:44;;;;;;;27.90;17.93;;;6.80;99.90;;;;;;4983268;28;20937;-91
2021/04/19 03:44:26;;;;;;;29.80;18.67;;;6.70;99.90;;;;;;4990719;28;20579;-91
2021/04/19 03:46:59;;;;;;;24.70;18.10;;;6.90;99.90;;;;;;4984352;28;20452;-90
2021/04/19 03:49:30;;;;;;;23.77;17.57;;;6.60;99.90;;;;;;4995709;28;20440;-88
2021/04/19 03:52:03;;;;;;;23.97;18.20;;;6.70;99.90;;;;;;4996426;28;20932;-87
2021/04/19 03:54:33;;;;;;;23.37;17.50;;;6.70;99.90;;;;;;4997657;28;20505;-91
2021/04/19 03:57:02;;;;;;;21.13;16.00;;;6.60;99.90;;;;;;4996838;28;20869;-89
2021/04/19 03:59:30;;;;;;;23.47;17.10;;;6.50;99.90;;;;;;4997204;28;20467;-90
2021/04/19 04:02:00;;;;;;;23.33;17.40;;;6.70;99.90;;;;;;4996923;28;20456;-90
2021/04/19 04:04:28;;;;;;;28.50;18.20;;;6.60;99.90;;;;;;4993650;28;20457;-91
2021/04/19 04:06:56;;;;;;;23.30;17.80;;;7.20;99.90;;;;;;4996206;28;20457;-90
2021/04/19 04:09:22;;;;;;;24.77;17.27;;;6.60;99.90;;;;;;4996461;28;20839;-90
2021/04/19 04:11:49;;;;;;;25.17;18.03;;;;;;;;;;4996767;28;21034;-92
2021/04/19 04:14:15;;;;;;;25.40;17.93;;;6.80;99.90;;;;;;4996382;28;20983;-91
2021/04/19 04:16:43;;;;;;;26.63;18.20;;;6.50;99.90;;;;;;4997157;28;20462;-91
2021/04/19 04:19:10;;;;;;;27.30;17.73;;;6.00;99.90;;;;;;4996457;28;20448;-90
2021/04/19 04:21:38;;;;;;;21.00;17.70;;;6.70;99.90;;;;;;4996987;28;20449;-89
2021/04/19 04:24:05;;;;;;;24.27;16.10;;;6.60;99.90;;;;;;4996368;28;20472;-92
2021/04/19 04:26:32;;;;;;;24.67;18.27;;;7.40;99.90;;;;;;4996857;28;20457;-92
2021/04/19 04:28:59;;;;;;;24.93;17.97;;;;;;;;;;4996868;28;20511;-91
2021/04/19 04:31:26;;;;;;;24.80;18.30;;;;;;;;;;4996386;28;20967;-90
2021/04/19 04:33:52;;;;;;;23.70;17.07;;;6.50;99.90;;;;;;4996025;28;20481;-93
2021/04/19 04:36:19;;;;;;;26.03;19.20;;;6.60;99.90;;;;;;4996747;28;20453;-91
2021/04/19 04:38:46;;;;;;;30.03;20.20;;;6.50;99.90;;;;;;4993039;28;20449;-94
2021/04/19 04:41:13;;;;;;;30.23;19.43;;;6.20;99.90;;;;;;4996535;28;20437;-90
2021/04/19 04:43:42;;;;;;;25.33;18.43;;;6.50;99.90;;;;;;4996560;28;20472;-90
2021/04/19 04:46:18;;;;;;;24.50;18.10;;;6.60;99.90;;;;;;4996356;28;20441;-91
2021/04/19 04:48:53;;;;;;;31.63;19.90;;;6.80;99.90;;;;;;4996227;28;20445;-89
2021/04/19 04:51:22;;;;;;;33.87;20.70;;;6.60;99.90;;;;;;4995723;28;20464;-92
2021/04/19 04:53:53;;;;;;;28.53;19.80;;;6.60;99.90;;;;;;4995342;28;20555;-93
2021/04/19 04:56:22;;;;;;;30.03;19.30;;;6.60;99.90;;;;;;4995576;28;20461;-91
2021/04/19 04:58:52;;;;;;;27.93;18.87;;;6.60;99.90;;;;;;4995697;28;20461;-92
2021/04/19 05:01:20;;;;;;;28.07;18.87;;;6.80;99.90;;;;;;4994321;28;20453;-89
2021/04/19 05:03:48;;;;;;;23.10;18.00;;;6.70;99.90;;;;;;4992005;28;20456;-90
2021/04/19 05:06:15;;;;;;;26.77;17.70;;;;;;;;;;4995770;28;20564;-88
2021/04/19 05:08:42;;;;;;;25.40;17.50;;;6.60;99.90;;;;;;4994998;28;20489;-92
2021/04/19 05:11:09;;;;;;;23.27;16.27;;;6.60;99.90;;;;;;4996538;28;20464;-91
2021/04/19 05:13:36;;;;;;;23.07;17.17;;;5.90;99.90;;;;;;4982225;28;20497;-88
2021/04/19 05:16:02;;;;;;;23.30;17.83;;;;;;;;;;4976613;28;20458;-88
2021/04/19 05:18:29;;;;;;;22.77;17.10;;;6.40;99.90;;;;;;4976405;28;20509;-92
2021/04/19 05:20:56;;;;;;;26.67;18.57;;;6.40;99.90;;;;;;4976202;28;20462;-87
2021/04/19 05:23:25;;;;;;;29.27;18.60;;;8.50;99.90;;;;;;4975717;28;20454;-89
2021/04/19 05:25:55;;;;;;;25.80;18.63;;;6.30;99.90;;;;;;4984842;28;20453;-87
2021/04/19 05:28:25;;;;;;;21.87;17.90;;;6.50;99.90;;;;;;4986419;28;20531;-87
2021/04/19 05:30:51;;;;;;;26.53;19.33;;;;;;;;;;4987631;28;20887;-89
2021/04/19 05:33:18;;;;;;;28.10;19.20;;;6.60;99.90;;;;;;4994294;28;20481;-88
2021/04/19 05:35:45;;;;;;;27.47;20.40;;;;;;;;;;4994225;28;20464;-87
2021/04/19 05:38:12;;;;;;;24.33;18.87;;;6.60;99.90;;;;;;4993418;28;20457;-89
2021/04/19 05:40:39;;;;;;;24.10;17.60;;;6.60;99.90;;;;;;4994727;28;20457;-89
2021/04/19 05:43:07;;;;;;;26.90;20.03;;;6.60;99.90;;;;;;4995420;28;20444;-90
2021/04/19 05:45:36;;;;;;;29.80;18.03;;;6.60;99.90;;;;;;4994664;28;20689;-93
2021/04/19 05:48:07;;;;;;;27.40;19.90;;;6.50;99.90;;;;;;4985805;28;20478;-89
2021/04/19 05:50:35;;;;;;;28.83;18.13;;;6.40;99.90;;;;;;4991351;28;20489;-90
2021/04/19 05:53:02;;;;;;;24.47;18.50;;;6.70;99.90;;;;;;4993602;28;20496;-87
2021/04/19 05:55:31;;;;;;;26.87;18.90;;;6.40;99.90;;;;;;4993249;28;20861;-89
2021/04/19 05:58:03;;;;;;;28.03;19.23;;;6.20;99.90;;;;;;4994560;28;20476;-87
2021/04/19 06:00:36;;;;;;;23.33;17.97;;;6.60;99.90;;;;;;4995406;28;20450;-89
2021/04/19 06:03:06;;;;;;;29.43;19.70;;;6.30;99.90;;;;;;4995163;28;20445;-89
2021/04/19 06:05:36;;;;;;;29.57;22.33;;;6.50;99.90;;;;;;4996045;28;20454;-91
2021/04/19 06:08:11;;;;;;;38.47;24.47;;;6.30;99.90;;;;;;4994902;28;20449;-88
2021/04/19 06:10:41;;;;;;;24.23;18.30;;;6.40;99.90;;;;;;4975880;28;20446;-88
2021/04/19 06:13:09;;;;;;;28.07;20.27;;;6.60;99.90;;;;;;4974683;28;20489;-90
2021/04/19 06:15:38;;;;;;;23.90;18.77;;;6.50;99.90;;;;;;4978169;28;20457;-90
2021/04/19 06:18:05;;;;;;;24.30;18.50;;;;;;;;;;4976983;28;20493;-90
2021/04/19 06:20:33;;;;;;;26.03;19.20;;;6.40;99.90;;;;;;4974044;28;20465;-91
2021/04/19 06:23:00;;;;;;;26.27;19.73;;;6.50;99.90;;;;;;4976254;28;20446;-89
2021/04/19 06:25:28;;;;;;;29.33;19.97;;;6.50;99.90;;;;;;4977726;28;20496;-90
2021/04/19 06:28:00;;;;;;;26.80;18.77;;;6.30;99.90;;;;;;4977813;28;20501;-90
2021/04/19 06:30:30;;;;;;;27.57;19.47;;;6.40;99.90;;;;;;4977326;28;20470;-90
2021/04/19 06:32:59;;;;;;;30.13;19.43;;;6.60;99.90;;;;;;4975906;28;20932;-90
2021/04/19 06:35:25;;;;;;;24.27;19.20;;;6.80;99.90;;;;;;4976008;28;20474;-89
2021/04/19 06:37:54;;;;;;;26.13;19.50;;;6.60;99.90;;;;;;4976600;28;20513;-91
2021/04/19 06:40:21;;;;;;;23.40;18.47;;;6.20;99.90;;;;;;4977985;28;20485;-89
2021/04/19 06:42:47;;;;;;;23.93;19.10;;;6.60;99.90;;;;;;4977989;28;20448;-88
2021/04/19 06:45:15;;;;;;;27.50;19.57;;;6.80;99.90;;;;;;4977029;28;20450;-90
2021/04/19 06:47:42;;;;;;;30.97;19.50;;;6.50;99.90;;;;;;4976228;28;20477;-92
2021/04/19 06:50:11;;;;;;;27.47;19.27;;;6.60;99.90;;;;;;4976216;28;20512;-91
2021/04/19 06:52:39;;;;;;;25.37;19.37;;;;;;;;;;4974171;28;20453;-90
2021/04/19 06:55:06;;;;;;;28.20;20.20;;;6.50;99.90;;;;;;4974890;28;20443;-89
2021/04/19 06:57:36;;;;;;;32.50;18.47;;;6.60;99.90;;;;;;4971539;28;20450;-86
2021/04/19 07:00:04;;;;;;;26.37;17.63;;;6.40;99.90;;;;;;4975445;28;20897;-90
2021/04/19 07:02:35;;;;;;;28.33;19.57;;;6.40;99.90;;;;;;4973749;28;20477;-94
2021/04/19 07:05:01;;;;;;;28.87;18.87;;;;;;;;;;4974912;28;20802;-88
2021/04/19 07:07:32;;;;;;;30.73;17.07;;;6.40;99.90;;;;;;4974060;28;20504;-90
2021/04/19 07:10:01;;;;;;;26.00;20.03;;;6.40;99.90;;;;;;4989174;28;20532;-89
2021/04/19 07:12:28;;;;;;;27.97;18.40;;;6.80;99.90;;;;;;4997936;28;20446;-89
2021/04/19 07:14:56;;;;;;;23.40;17.60;;;6.40;99.90;;;;;;4988260;28;20457;-87
2021/04/19 07:17:22;;;;;;;24.83;17.40;;;5.70;99.90;;;;;;4985775;28;20453;-86
2021/04/19 07:19:49;;;;;;;26.80;17.37;;;;;;;;;;4988053;28;20462;-89
2021/04/19 07:22:16;;;;;;;27.23;18.03;;;6.50;99.90;;;;;;4988044;28;20453;-88
2021/04/19 07:24:44;;;;;;;24.20;18.80;;;6.40;99.90;;;;;;4982505;28;20461;-89
2021/04/19 07:27:12;;;;;;;25.93;18.43;;;6.40;99.90;;;;;;4984702;28;20456;-88
2021/04/19 07:29:38;;;;;;;23.20;17.57;;;6.40;99.90;;;;;;4977344;28;20508;-89
2021/04/19 07:32:06;;;;;;;23.80;17.00;;;6.30;99.90;;;;;;4980216;28;20448;-88
2021/04/19 07:34:33;;;;;;;21.83;17.03;;;6.40;99.90;;;;;;4980551;28;20502;-90
2021/04/19 07:37:01;;;;;;;24.63;16.80;;;6.40;99.90;;;;;;4979609;28;20450;-89
2021/04/19 07:39:30;;;;;;;22.57;16.90;;;6.10;99.90;;;;;;4978500;28;20497;-89
2021/04/19 07:41:59;;;;;;;25.87;17.90;;;6.20;99.90;;;;;;4979058;28;20446;-87
2021/04/19 07:44:39;;;;;;;27.13;16.90;;;6.40;99.90;;;;;;4975344;28;20453;-87
2021/04/19 07:47:23;;;;;;;22.70;14.70;;;5.80;99.90;;;;;;4978251;28;20450;-89
2021/04/19 07:50:10;;;;;;;27.03;17.57;;;5.90;99.90;;;;;;4978692;28;20465;-89
2021/04/19 07:52:49;;;;;;;19.60;15.50;;;6.00;99.90;;;;;;4977875;28;20453;-89
2021/04/19 07:55:20;;;;;;;21.43;15.90;;;6.20;99.90;;;;;;4979498;28;20453;-90
2021/04/19 07:57:48;;;;;;;22.40;16.80;;;;;;;;;;4990985;28;20483;-89
2021/04/19 08:00:25;;;;;;;22.43;15.83;;;6.40;99.90;;;;;;4996460;28;20438;-91
2021/04/19 08:03:05;;;;;;;25.13;16.63;;;6.60;99.90;;;;;;4999904;28;20503;-90
2021/04/19 08:05:38;;;;;;;23.03;16.30;;;6.70;99.90;;;;;;4999761;28;20841;-92
2021/04/19 08:08:05;;;;;;;24.00;16.37;;;6.80;99.90;;;;;;4998216;28;20460;-91
2021/04/19 08:10:32;;;;;;;21.53;16.20;;;;;;;;;;4998013;28;20492;-91
2021/04/19 08:13:05;;;;;;;22.63;15.37;;;6.40;99.90;;;;;;5000608;28;20496;-91
2021/04/19 08:15:31;;;;;;;22.27;16.27;;;6.80;99.90;;;;;;4977138;28;20454;-90
2021/04/19 08:18:03;;;;;;;21.97;15.93;;;6.50;99.90;;;;;;4977972;28;20445;-90
2021/04/19 08:20:30;;;;;;;20.37;16.03;;;6.70;99.90;;;;;;4977427;28;20450;-87
2021/04/19 08:23:08;;;;;;;23.20;15.53;;;6.50;99.90;;;;;;4976624;28;20454;-90
2021/04/19 08:25:44;;;;;;;19.43;16.37;;;6.70;99.90;;;;;;4979533;28;20465;-90
2021/04/19 08:28:14;;;;;;;22.73;16.23;;;6.50;99.90;;;;;;4980047;28;20470;-90
2021/04/19 08:30:42;;;;;;;20.50;16.60;;;6.50;99.90;;;;;;4980205;28;20805;-89
2021/04/19 08:33:11;;;;;;;23.83;15.70;;;6.60;99.90;;;;;;4992801;28;20488;-88
2021/04/19 08:35:42;;;;;;;20.80;16.23;;;6.60;99.90;;;;;;4995925;28;20945;-88
2021/04/19 08:38:12;;;;;;;22.97;16.17;;;6.60;99.90;;;;;;4995100;28;20466;-87
2021/04/19 08:40:41;;;;;;;20.87;16.30;;;6.70;99.90;;;;;;4996231;28;20456;-90
2021/04/19 08:43:10;;;;;;;21.73;13.67;;;6.80;99.90;;;;;;4998216;28;20456;-87
2021/04/19 08:45:42;;;;;;;20.00;15.37;;;6.50;99.90;;;;;;4977446;28;20795;-90
2021/04/19 08:48:10;;;;;;;20.63;15.77;;;6.80;99.90;;;;;;4979432;28;20529;-89
2021/04/19 08:50:37;;;;;;;20.60;12.57;;;6.60;99.90;;;;;;4980170;28;20450;-91
2021/04/19 08:53:03;;;;;;;20.93;14.87;;;6.50;99.90;;;;;;4980761;28;20490;-90
2021/04/19 08:55:29;;;;;;;26.60;17.13;;;6.50;99.90;;;;;;4981399;28;20434;-89
2021/04/19 08:58:00;;;;;;;22.00;15.80;;;6.50;99.90;;;;;;4982508;28;20478;-90
2021/04/19 09:00:26;;;;;;;20.23;14.23;;;6.50;99.90;;;;;;4980906;28;20450;-88
2021/04/19 09:02:57;;;;;;;16.17;12.10;;;6.40;99.90;;;;;;4985193;28;20441;-87
2021/04/19 09:05:24;;;;;;;25.53;16.93;;;6.50;99.90;;;;;;4995121;28;20430;-88
2021/04/19 09:08:02;;;;;;;23.50;17.03;;;6.60;99.90;;;;;;4994342;28;20979;-89
2021/04/19 09:10:51;;;;;;;22.67;17.73;;;6.60;99.90;;;;;;4996140;28;20559;-90
2021/04/19 09:13:32;;;;;;;21.53;15.80;;;6.80;99.90;;;;;;4996294;28;20496;-89
2021/04/19 09:16:14;;;;;;;20.57;14.83;;;6.80;99.90;;;;;;4994198;28;20455;-90
2021/04/19 09:18:43;;;;;;;25.17;16.23;;;6.70;99.90;;;;;;4998134;28;20944;-88
2021/04/19 09:21:09;;;;;;;18.87;13.63;;;6.50;99.90;;;;;;4998494;28;20472;-88
2021/04/19 09:23:36;;;;;;;22.17;15.37;;;6.60;99.90;;;;;;4996625;28;20457;-88
2021/04/19 09:26:02;;;;;;;17.33;11.50;;;;;;;;;;4997449;28;20445;-89
2021/04/19 09:28:53;;;;;;;26.40;18.17;;;6.60;99.90;;;;;;4995257;28;20468;-86
2021/04/19 09:31:56;;;;;;;21.43;16.83;;;6.50;99.90;;;;;;4987968;28;20458;-88
2021/04/19 09:34:37;;;;;;;28.20;18.73;;;6.70;99.90;;;;;;4996799;28;20488;-92
2021/04/19 09:37:04;;;;;;;26.93;16.77;;;6.50;99.90;;;;;;4978083;28;20445;-89
2021/04/19 09:39:46;;;;;;;27.73;18.77;;;6.60;99.90;;;;;;4993429;28;20849;-89
2021/04/19 09:42:13;;;;;;;26.13;17.13;;;6.40;99.90;;;;;;4993590;28;20484;-89
2021/04/19 09:44:51;;;;;;;27.97;17.77;;;6.80;99.90;;;;;;4993976;28;20502;-90
2021/04/19 09:47:51;;;;;;;25.43;18.80;;;6.80;99.90;;;;;;4988164;28;20458;-90
2021/04/19 09:50:22;;;;;;;24.90;17.10;;;6.80;99.90;;;;;;4990760;28;20461;-88
2021/04/19 09:53:01;;;;;;;25.37;18.97;;;6.80;99.90;;;;;;4969245;28;20459;-89
2021/04/19 09:55:27;;;;;;;22.63;16.27;;;;;;;;;;4977654;28;20476;-88
2021/04/19 09:57:54;;;;;;;24.00;18.00;;;7.60;99.90;;;;;;4976729;28;20466;-89
2021/04/19 10:00:21;;;;;;;26.27;17.20;;;6.80;99.90;;;;;;4974612;28;20501;-89
2021/04/19 10:02:47;;;;;;;25.87;19.57;;;7.00;99.90;;;;;;4988033;28;20441;-89
2021/04/19 10:05:15;;;;;;;23.10;17.27;;;6.90;99.90;;;;;;4994198;28;20980;-86
2021/04/19 10:07:45;;;;;;;34.97;19.57;;;7.10;99.90;;;;;;4953150;28;20454;-87
2021/04/19 10:10:12;;;;;;;30.27;20.57;;;7.40;99.90;;;;;;4973910;28;21053;-87
2021/04/19 10:12:45;;;;;;;28.90;18.70;;;7.20;99.90;;;;;;4973931;28;20537;-89
2021/04/19 10:15:20;;;;;;;27.40;19.57;;;7.20;99.90;;;;;;4973663;28;20450;-91
2021/04/19 10:17:46;;;;;;;28.00;19.30;;;7.30;99.90;;;;;;4975631;28;20465;-90
2021/04/19 10:20:22;;;;;;;26.03;20.63;;;7.10;99.90;;;;;;4972686;28;20943;-89
2021/04/19 10:23:07;;;;;;;23.33;16.73;;;7.40;99.90;;;;;;4974014;28;20450;-91
2021/04/19 10:25:33;;;;;;;36.20;21.07;;;7.30;99.90;;;;;;4975711;28;20457;-89
2021/04/19 10:28:00;;;;;;;25.60;17.90;;;;;;;;;;4975861;28;20473;-88
2021/04/19 10:30:27;;;;;;;29.10;19.70;;;7.20;99.90;;;;;;4976937;28;20453;-89
2021/04/19 10:32:53;;;;;;;29.40;17.77;;;7.10;99.90;;;;;;4967431;28;20450;-91
2021/04/19 10:35:41;;;;;;;28.30;19.60;;;7.10;99.90;;;;;;4971859;28;20450;-87
2021/04/19 10:38:08;;;;;;;29.20;17.63;;;7.20;99.90;;;;;;4974341;28;20933;-90
2021/04/19 10:40:35;;;;;;;27.87;19.40;;;7.60;99.90;;;;;;4976987;28;20442;-89
2021/04/19 10:43:05;;;;;;;20.30;15.27;;;7.40;99.90;;;;;;4977095;28;20446;-90
2021/04/19 10:45:32;;;;;;;26.00;17.47;;;7.30;99.90;;;;;;4977059;28;20446;-88
2021/04/19 10:48:20;;;;;;;24.97;17.03;;;7.30;99.90;;;;;;4975746;28;20451;-90
2021/04/19 10:50:47;;;;;;;28.73;18.30;;;7.50;99.90;;;;;;4977064;28;20458;-89
2021/04/19 10:53:30;;;;;;;27.00;18.37;;;7.40;99.90;;;;;;4971483;28;20485;-89
2021/04/19 10:55:58;;;;;;;26.10;19.10;;;7.60;99.90;;;;;;4959413;29;20494;-90
2021/04/19 10:58:25;;;;;;;22.03;16.57;;;;;;;;;;4958471;29;20494;-89
2021/04/19 11:00:51;;;;;;;28.30;17.93;;;7.30;99.90;;;;;;4960219;28;20455;-90
2021/04/19 11:03:18;;;;;;;23.70;16.27;;;7.50;99.90;;;;;;4976646;28;20454;-89
2021/04/19 11:05:45;;;;;;;23.97;16.43;;;;;;;;;;4980481;28;20442;-87
2021/04/19 11:08:11;;;;;;;27.13;19.33;;;7.50;99.90;;;;;;4984727;28;20460;-89
2021/04/19 11:10:49;;;;;;;26.30;17.80;;;7.40;99.90;;;;;;5004357;28;20596;-89
2021/04/19 11:13:25;;;;;;;24.07;18.27;;;7.60;99.90;;;;;;5003271;28;20480;-89
2021/04/19 11:15:59;;;;;;;32.97;18.43;;;7.90;99.90;;;;;;5005246;28;20449;-89
2021/04/19 11:18:28;;;;;;;22.87;16.10;;;7.70;99.90;;;;;;4999774;28;20516;-87
2021/04/19 11:20:55;;;;;;;22.80;16.40;;;7.40;99.90;;;;;;5001052;28;20457;-85
2021/04/19 11:23:27;;;;;;;25.90;17.93;;;7.70;99.90;;;;;;4997797;28;20457;-86
2021/04/19 11:25:57;;;;;;;22.77;15.50;;;7.80;99.90;;;;;;4998028;28;20813;-86
2021/04/19 11:28:29;;;;;;;22.50;16.13;;;7.50;99.90;;;;;;4998630;28;20500;-86
2021/04/19 11:30:56;;;;;;;24.37;16.33;;;;;;;;;;4998796;28;20464;-86
2021/04/19 11:33:25;;;;;;;22.63;16.57;;;7.90;99.90;;;;;;4998954;28;20485;-85
2021/04/19 11:35:58;;;;;;;26.60;16.83;;;7.70;99.90;;;;;;4998753;28;20459;-86
2021/04/19 11:38:25;;;;;;;19.30;14.90;;;8.00;99.90;;;;;;4998871;28;20457;-91
2021/04/19 11:40:57;;;;;;;24.47;15.97;;;7.70;99.90;;;;;;5005010;28;20449;-89
2021/04/19 11:43:26;;;;;;;22.93;15.83;;;7.80;99.90;;;;;;5000082;28;20445;-89
2021/04/19 11:45:58;;;;;;;21.83;16.60;;;8.00;99.90;;;;;;5000218;28;20450;-88
2021/04/19 11:48:25;;;;;;;22.60;16.00;;;8.40;99.90;;;;;;5000013;28;20445;-87
2021/04/19 11:50:51;;;;;;;16.30;12.80;;;8.10;99.90;;;;;;4998925;28;20453;-87
2021/04/19 11:53:22;;;;;;;21.83;13.70;;;8.20;99.90;;;;;;4997132;28;20477;-89
2021/04/19 11:55:51;;;;;;;20.50;14.60;;;8.20;99.90;;;;;;4998219;28;20449;-88
2021/04/19 11:58:17;;;;;;;18.90;14.67;;;8.40;99.90;;;;;;4998096;28;20512;-89
2021/04/19 12:00:46;;;;;;;17.43;13.67;;;8.40;99.90;;;;;;4999238;28;20445;-86
2021/04/19 12:03:13;;;;;;;23.73;14.53;;;8.30;99.90;;;;;;4996749;28;20441;-92
2021/04/19 12:05:40;;;;;;;15.93;12.50;;;8.20;99.90;;;;;;5002930;28;20453;-90
2021/04/19 12:08:06;;;;;;;19.03;14.30;;;8.60;99.90;;;;;;5002344;28;20438;-89
2021/04/19 12:10:33;;;;;;;18.07;14.40;;;8.30;99.90;;;;;;4996649;28;20468;-91
2021/04/19 12:13:00;;;;;;;17.47;13.67;;;;;;;;;;4999681;28;20453;-89
2021/04/19 12:15:27;;;;;;;17.63;13.50;;;8.70;99.90;;;;;;4998526;28;20536;-88
2021/04/19 12:17:55;;;;;;;17.87;12.47;;;8.60;99.90;;;;;;4999925;28;20453;-90
2021/04/19 12:20:21;;;;;;;16.80;13.47;;;;;;;;;;5002927;28;20449;-91
2021/04/19 12:22:48;;;;;;;17.53;13.07;;;8.40;99.90;;;;;;5003156;28;20492;-90
2021/04/19 12:25:15;;;;;;;18.90;13.77;;;8.60;99.90;;;;;;5000434;28;20863;-89
2021/04/19 12:27:41;;;;;;;15.73;12.93;;;8.90;99.90;;;;;;4999231;28;21002;-90
2021/04/19 12:30:09;;;;;;;20.53;13.90;;;8.40;99.90;;;;;;4998740;28;20544;-91
2021/04/19 12:32:36;;;;;;;23.60;16.00;;;;;;;;;;5002792;28;20469;-90
2021/04/19 12:35:03;;;;;;;19.37;13.90;;;8.50;99.90;;;;;;5004359;28;20908;-92
2021/04/19 12:37:30;;;;;;;16.70;12.63;;;8.20;99.90;;;;;;4995742;28;20461;-91
2021/04/19 12:39:56;;;;;;;16.77;11.90;;;;;;;;;;4996563;28;20449;-92
2021/04/19 12:42:23;;;;;;;20.47;13.93;;;;;;;;;;4999177;28;20441;-91
2021/04/19 12:44:50;;;;;;;13.53;10.30;;;;;;;;;;5000608;28;20483;-91
2021/04/19 12:47:16;;;;;;;17.90;12.60;;;8.00;99.90;;;;;;5001243;28;20441;-91
2021/04/19 12:49:43;;;;;;;18.33;12.87;;;;;;;;;;5003356;28;20937;-91
2021/04/19 12:52:10;;;;;;;17.37;11.63;;;7.90;99.90;;;;;;4998809;28;20527;-90
2021/04/19 12:54:37;;;;;;;18.87;14.10;;;;;;;;;;5000772;28;20500;-92
2021/04/19 12:57:03;;;;;;;18.40;12.90;;;8.30;99.90;;;;;;5001633;28;20548;-90
2021/04/19 12:59:30;;;;;;;20.13;14.50;;;;;;;;;;4999590;28;20457;-89